createdAt,value
2022-12-05T00:02:42.896Z,22.3
2022-12-05T00:08:05.537Z,22.3
2022-12-05T00:13:28.080Z,22.3
2022-12-05T00:18:51.026Z,22.3
2022-12-05T00:24:29.057Z,22.3
2022-12-05T00:30:06.259Z,22.3
2022-12-05T00:35:27.909Z,22.3
2022-12-05T00:41:05.150Z,22.4
2022-12-05T00:46:51.208Z,22.4
2022-12-05T00:52:13.430Z,22.4
2022-12-05T00:57:51.138Z,22.4
2022-12-05T01:03:29.875Z,22.4
2022-12-05T01:08:52.833Z,22.4
2022-12-05T01:14:18.335Z,22.4
2022-12-05T01:19:41.050Z,22.5
2022-12-05T01:25:18.772Z,22.5
2022-12-05T01:30:41.755Z,22.5
2022-12-05T01:36:20.173Z,22.6
2022-12-05T01:41:42.662Z,22.6
2022-12-05T01:47:09.195Z,22.6
2022-12-05T01:52:32.284Z,22.6
2022-12-05T01:57:54.714Z,22.6
2022-12-05T02:03:33.087Z,22.6
2022-12-05T02:08:40.726Z,22.7
2022-12-05T02:14:05.523Z,22.6
2022-12-05T02:19:42.895Z,22.6
2022-12-05T02:25:20.799Z,22.7
2022-12-05T02:30:58.200Z,22.7
2022-12-05T02:36:19.545Z,22.8
2022-12-05T02:41:57.985Z,22.7
2022-12-05T02:47:35.933Z,22.7
2022-12-05T02:53:13.385Z,22.8
2022-12-05T02:58:51.225Z,22.7
2022-12-05T03:04:28.676Z,22.7
2022-12-05T03:10:07.127Z,22.8
2022-12-05T03:15:29.467Z,22.8
2022-12-05T03:21:08.069Z,22.8
2022-12-05T03:26:45.677Z,22.8
2022-12-05T03:32:08.892Z,22.8
2022-12-05T03:37:45.534Z,22.8
2022-12-05T03:43:09.555Z,22.8
2022-12-05T03:48:47.439Z,22.8
2022-12-05T03:54:44.940Z,22.9
2022-12-05T04:00:22.385Z,22.8
2022-12-05T04:05:45.679Z,22.8
2022-12-05T04:11:23.997Z,22.9
2022-12-05T04:17:01.727Z,22.9
2022-12-05T04:22:41.093Z,22.9
2022-12-05T04:27:48.034Z,22.9
2022-12-05T04:33:11.092Z,22.9
2022-12-05T04:38:33.705Z,22.9
2022-12-05T04:43:45.809Z,22.9
2022-12-05T04:48:37.502Z,22.9
2022-12-05T04:54:06.186Z,22.9
2022-12-05T04:59:49.723Z,22.9
2022-12-05T05:05:32.566Z,22.9
2022-12-05T05:11:11.775Z,22.9
2022-12-05T05:16:50.211Z,22.9
2022-12-05T05:22:27.954Z,22.9
2022-12-05T05:28:08.418Z,22.9
2022-12-05T05:33:30.548Z,22.9
2022-12-05T05:39:13.711Z,22.9
2022-12-05T05:44:58.390Z,22.9
2022-12-05T05:50:42.748Z,23
2022-12-05T05:56:21.926Z,22.9
2022-12-05T06:01:36.909Z,23
2022-12-05T06:07:20.820Z,22.9
2022-12-05T06:12:58.908Z,22.9
2022-12-05T06:18:37.416Z,22.9
2022-12-05T06:24:21.518Z,22.9
2022-12-05T06:30:03.829Z,22.9
2022-12-05T06:35:41.948Z,23
2022-12-05T06:41:19.435Z,23
2022-12-05T06:46:57.436Z,23
2022-12-05T06:52:24.852Z,23
2022-12-05T06:58:02.313Z,23
2022-12-05T07:03:41.754Z,23
2022-12-05T07:09:25.699Z,23
2022-12-05T07:15:29.134Z,23.1
2022-12-05T07:21:36.475Z,23
2022-12-05T07:27:23.452Z,23
2022-12-05T07:32:49.282Z,23
2022-12-05T07:38:26.814Z,23
2022-12-05T07:44:05.949Z,23
2022-12-05T07:49:46.461Z,23
2022-12-05T07:55:23.781Z,22.9
2022-12-05T08:01:02.685Z,22.9
2022-12-05T08:06:45.998Z,22.9
2022-12-05T08:12:30.318Z,23
2022-12-05T08:18:07.946Z,22.9
2022-12-05T08:23:32.811Z,23
2022-12-05T08:29:11.017Z,23
2022-12-05T08:34:37.342Z,23
2022-12-05T08:40:17.028Z,23
2022-12-05T08:45:55.302Z,23
2022-12-05T08:51:37.313Z,23
2022-12-05T08:57:21.211Z,23
2022-12-05T09:03:04.292Z,23
2022-12-05T09:09:08.553Z,23
2022-12-05T09:14:46.431Z,23
2022-12-05T09:20:26.742Z,23
2022-12-05T09:26:08.680Z,23
2022-12-05T09:31:52.116Z,23
2022-12-05T09:37:59.260Z,23
2022-12-05T09:43:36.837Z,23
2022-12-05T09:49:16.055Z,23
2022-12-05T09:54:58.459Z,23
2022-12-05T10:00:42.339Z,23
2022-12-05T10:06:27.739Z,23
2022-12-05T10:12:06.167Z,22.9
2022-12-05T10:17:47.571Z,23
2022-12-05T10:24:00.260Z,22.9
2022-12-05T10:29:41.576Z,22.9
2022-12-05T10:35:27.873Z,22.9
2022-12-05T10:41:11.969Z,22.9
2022-12-05T10:46:55.046Z,22.9
2022-12-05T10:52:33.287Z,22.9
2022-12-05T10:58:53.641Z,22.9
2022-12-05T11:04:37.459Z,22.9
2022-12-05T11:10:48.681Z,22.9
2022-12-05T11:16:33.200Z,22.9
2022-12-05T11:22:11.632Z,22.9
2022-12-05T11:27:54.967Z,22.9
2022-12-05T11:33:35.504Z,22.9
2022-12-05T11:39:14.237Z,22.9
2022-12-05T11:44:43.810Z,22.9
2022-12-05T11:50:09.686Z,22.9
2022-12-05T11:56:25.408Z,22.9
2022-12-05T12:02:06.776Z,22.9
2022-12-05T12:07:48.876Z,22.9
2022-12-05T12:13:32.324Z,22.9
2022-12-05T12:19:16.904Z,22.9
2022-12-05T12:25:00.597Z,22.9
2022-12-05T12:30:40.663Z,22.9
2022-12-05T12:36:04.614Z,22.9
2022-12-05T12:41:43.929Z,22.9
2022-12-05T12:47:56.380Z,22.9
2022-12-05T12:53:35.807Z,22.9
2022-12-05T12:59:53.716Z,22.9
2022-12-05T13:05:37.160Z,22.9
2022-12-05T13:11:19.407Z,22.9
2022-12-05T13:16:45.979Z,22.9
2022-12-05T13:22:09.032Z,22.9
2022-12-05T13:27:51.914Z,22.9
2022-12-05T13:33:22.417Z,22.9
2022-12-05T13:39:05.132Z,22.9
2022-12-05T13:44:59.541Z,22.9
2022-12-05T13:50:43.478Z,22.9
2022-12-05T13:56:26.864Z,22.9
2022-12-05T14:02:10.336Z,22.9
2022-12-05T14:07:47.946Z,22.9
2022-12-05T14:13:26.257Z,22.9
2022-12-05T14:19:09.183Z,22.9
2022-12-05T14:24:54.178Z,22.9
2022-12-05T14:30:45.269Z,22.9
2022-12-05T14:36:23.859Z,22.9
2022-12-05T14:42:05.022Z,22.9
2022-12-05T14:47:34.302Z,22.9
2022-12-05T14:53:04.935Z,22.9
2022-12-05T14:58:49.990Z,22.9
2022-12-05T15:04:30.416Z,22.9
2022-12-05T15:10:45.924Z,22.9
2022-12-05T15:16:25.492Z,22.9
2022-12-05T15:22:07.822Z,22.8
2022-12-05T15:28:17.031Z,22.9
2022-12-05T15:33:39.881Z,22.8
2022-12-05T15:39:22.081Z,22.9
2022-12-05T15:45:08.655Z,22.9
2022-12-05T15:50:46.396Z,22.9
2022-12-05T15:56:30.384Z,22.8
2022-12-05T16:02:11.833Z,22.9
2022-12-05T16:07:54.815Z,22.8
2022-12-05T16:13:38.043Z,22.8
2022-12-05T16:19:50.873Z,22.8
2022-12-05T16:25:19.151Z,22.8
2022-12-05T16:30:57.057Z,22.8
2022-12-05T16:36:36.020Z,22.8
2022-12-05T16:42:14.530Z,22.8
2022-12-05T16:48:00.238Z,22.8
2022-12-05T16:53:44.184Z,22.8
2022-12-05T16:58:51.189Z,22.8
2022-12-05T17:04:44.553Z,22.8
2022-12-05T17:10:26.543Z,22.8
2022-12-05T17:16:07.404Z,22.8
2022-12-05T17:21:36.491Z,22.7
2022-12-05T17:27:14.398Z,22.8
2022-12-05T17:32:27.702Z,22.7
2022-12-05T17:38:05.929Z,22.8
2022-12-05T17:43:47.028Z,22.7
2022-12-05T17:49:26.423Z,22.7
2022-12-05T17:55:15.190Z,22.7
2022-12-05T18:00:36.729Z,22.8
2022-12-05T18:06:03.845Z,22.8
2022-12-05T18:11:26.193Z,22.7
2022-12-05T18:16:38.444Z,22.6
2022-12-05T18:26:54.581Z,22.7
2022-12-05T18:32:35.975Z,22.7
2022-12-05T18:38:04.938Z,22.7
2022-12-05T18:43:43.054Z,22.6
2022-12-05T18:49:38.331Z,22.7
2022-12-05T18:56:13.311Z,22.6
2022-12-05T19:01:58.947Z,22.6
2022-12-05T19:07:40.706Z,22.6
2022-12-05T19:13:19.254Z,22.6
2022-12-05T19:18:28.483Z,22.6
2022-12-05T19:23:39.017Z,22.7
2022-12-05T19:29:17.447Z,22.6
2022-12-05T19:34:59.559Z,22.6
2022-12-05T19:40:08.436Z,22.6
2022-12-05T19:45:51.807Z,22.6
2022-12-05T19:51:15.737Z,22.6
2022-12-05T19:56:54.304Z,22.6
2022-12-05T20:02:40.081Z,22.6
2022-12-05T20:08:04.180Z,22.6
2022-12-05T20:13:59.797Z,22.6
2022-12-05T20:19:23.394Z,22.6
2022-12-05T20:24:46.776Z,22.6
2022-12-05T20:30:25.583Z,22.6
2022-12-05T20:36:03.375Z,22.6
2022-12-05T20:41:29.479Z,22.6
2022-12-05T20:47:09.806Z,22.6
2022-12-05T20:52:47.978Z,22.6
2022-12-05T20:58:27.004Z,22.6
2022-12-05T21:04:11.410Z,22.6
2022-12-05T21:09:49.442Z,22.6
2022-12-05T21:15:29.922Z,22.6
2022-12-05T21:21:09.145Z,22.6
2022-12-05T21:26:46.786Z,22.5
2022-12-05T21:32:25.178Z,22.6
2022-12-05T21:37:47.417Z,22.6
2022-12-05T21:43:11.547Z,22.6
2022-12-05T21:48:30.887Z,22.6
2022-12-05T21:54:09.169Z,22.6
2022-12-05T21:59:52.776Z,22.6
2022-12-05T22:05:15.792Z,22.6
2022-12-05T22:10:59.027Z,22.6
2022-12-05T22:16:36.889Z,22.6
2022-12-05T22:22:15.622Z,22.6
2022-12-05T22:27:53.573Z,22.6
2022-12-05T22:33:34.276Z,22.6
2022-12-05T22:39:02.683Z,22.6
2022-12-05T22:44:40.396Z,22.6
2022-12-05T22:50:20.190Z,22.6
2022-12-05T22:55:58.260Z,22.6
2022-12-05T23:01:36.154Z,22.6
2022-12-05T23:07:18.844Z,22.6
2022-12-05T23:12:56.977Z,22.6
2022-12-05T23:18:35.845Z,22.6
2022-12-05T23:24:14.554Z,22.6
2022-12-05T23:29:52.538Z,22.6
2022-12-05T23:35:32.479Z,22.6
2022-12-05T23:41:10.878Z,22.6
2022-12-05T23:46:48.648Z,22.6
2022-12-05T23:52:28.314Z,22.6
2022-12-05T23:58:11.872Z,22.6
